sensor_id;sensor_type;location;lat;lon;timestamp;P1;durP1;ratioP1;P2;durP2;ratioP2
13457;SDS011;6801;53.018;11.560;2024-02-21T00:01:56;19.10;;;6.72;;
13457;SDS011;6801;53.018;11.560;2024-02-21T00:04:23;20.75;;;5.72;;
13457;SDS011;6801;53.018;11.560;2024-02-21T00:06:50;25.45;;;5.82;;
13457;SDS011;6801;53.018;11.560;2024-02-21T00:09:17;19.52;;;6.05;;
13457;SDS011;6801;53.018;11.560;2024-02-21T00:11:45;19.27;;;5.75;;
13457;SDS011;6801;53.018;11.560;2024-02-21T00:14:12;22.92;;;5.45;;
13457;SDS011;6801;53.018;11.560;2024-02-21T00:16:41;21.83;;;7.22;;
13457;SDS011;6801;53.018;11.560;2024-02-21T00:19:08;18.67;;;6.05;;
13457;SDS011;6801;53.018;11.560;2024-02-21T00:21:35;17.27;;;6.72;;
13457;SDS011;6801;53.018;11.560;2024-02-21T00:24:02;22.17;;;6.82;;
13457;SDS011;6801;53.018;11.560;2024-02-21T00:26:29;17.55;;;6.82;;
13457;SDS011;6801;53.018;11.560;2024-02-21T00:28:56;19.83;;;6.80;;
13457;SDS011;6801;53.018;11.560;2024-02-21T00:31:23;17.80;;;7.43;;
13457;SDS011;6801;53.018;11.560;2024-02-21T00:33:51;23.23;;;7.30;;
13457;SDS011;6801;53.018;11.560;2024-02-21T00:36:18;18.55;;;7.57;;
13457;SDS011;6801;53.018;11.560;2024-02-21T00:38:45;14.05;;;6.38;;
13457;SDS011;6801;53.018;11.560;2024-02-21T00:41:12;18.08;;;6.97;;
13457;SDS011;6801;53.018;11.560;2024-02-21T00:43:39;19.17;;;6.93;;
13457;SDS011;6801;53.018;11.560;2024-02-21T00:46:06;16.92;;;6.82;;
13457;SDS011;6801;53.018;11.560;2024-02-21T00:48:33;23.67;;;7.75;;
13457;SDS011;6801;53.018;11.560;2024-02-21T00:51:01;22.13;;;7.82;;
13457;SDS011;6801;53.018;11.560;2024-02-21T00:53:29;20.65;;;6.82;;
13457;SDS011;6801;53.018;11.560;2024-02-21T00:55:55;19.75;;;7.65;;
13457;SDS011;6801;53.018;11.560;2024-02-21T00:58:23;20.88;;;8.15;;
13457;SDS011;6801;53.018;11.560;2024-02-21T01:00:49;19.58;;;8.27;;
13457;SDS011;6801;53.018;11.560;2024-02-21T01:03:16;22.25;;;8.02;;
13457;SDS011;6801;53.018;11.560;2024-02-21T01:05:43;24.67;;;8.50;;
13457;SDS011;6801;53.018;11.560;2024-02-21T01:08:12;18.67;;;7.85;;
13457;SDS011;6801;53.018;11.560;2024-02-21T01:10:39;23.17;;;9.02;;
13457;SDS011;6801;53.018;11.560;2024-02-21T01:13:06;28.77;;;8.15;;
13457;SDS011;6801;53.018;11.560;2024-02-21T01:15:33;18.85;;;8.55;;
13457;SDS011;6801;53.018;11.560;2024-02-21T01:18:00;27.33;;;8.13;;
13457;SDS011;6801;53.018;11.560;2024-02-21T01:20:27;19.48;;;8.30;;
13457;SDS011;6801;53.018;11.560;2024-02-21T01:22:54;17.25;;;8.07;;
13457;SDS011;6801;53.018;11.560;2024-02-21T01:25:23;18.35;;;7.95;;
13457;SDS011;6801;53.018;11.560;2024-02-21T01:27:50;23.00;;;8.13;;
13457;SDS011;6801;53.018;11.560;2024-02-21T01:30:17;22.25;;;7.68;;
13457;SDS011;6801;53.018;11.560;2024-02-21T01:32:44;20.42;;;8.93;;
13457;SDS011;6801;53.018;11.560;2024-02-21T01:35:11;24.10;;;8.80;;
13457;SDS011;6801;53.018;11.560;2024-02-21T01:37:38;23.33;;;9.20;;
13457;SDS011;6801;53.018;11.560;2024-02-21T01:40:05;19.85;;;8.80;;
13457;SDS011;6801;53.018;11.560;2024-02-21T01:42:35;22.52;;;9.00;;
13457;SDS011;6801;53.018;11.560;2024-02-21T01:45:04;19.15;;;9.13;;
13457;SDS011;6801;53.018;11.560;2024-02-21T01:47:32;27.13;;;8.38;;
13457;SDS011;6801;53.018;11.560;2024-02-21T01:49:59;18.42;;;9.55;;
13457;SDS011;6801;53.018;11.560;2024-02-21T01:52:27;22.40;;;9.25;;
13457;SDS011;6801;53.018;11.560;2024-02-21T01:54:55;19.75;;;9.35;;
13457;SDS011;6801;53.018;11.560;2024-02-21T01:57:22;18.10;;;9.38;;
13457;SDS011;6801;53.018;11.560;2024-02-21T01:59:52;23.73;;;10.48;;
13457;SDS011;6801;53.018;11.560;2024-02-21T02:02:19;16.60;;;8.75;;
13457;SDS011;6801;53.018;11.560;2024-02-21T02:04:47;21.50;;;9.13;;
13457;SDS011;6801;53.018;11.560;2024-02-21T02:07:15;24.38;;;10.93;;
13457;SDS011;6801;53.018;11.560;2024-02-21T02:09:42;21.27;;;9.98;;
13457;SDS011;6801;53.018;11.560;2024-02-21T02:12:09;22.52;;;11.45;;
13457;SDS011;6801;53.018;11.560;2024-02-21T02:14:36;25.35;;;9.82;;
13457;SDS011;6801;53.018;11.560;2024-02-21T02:17:05;19.05;;;10.82;;
13457;SDS011;6801;53.018;11.560;2024-02-21T02:19:32;28.88;;;10.57;;
13457;SDS011;6801;53.018;11.560;2024-02-21T02:22:00;20.27;;;10.20;;
13457;SDS011;6801;53.018;11.560;2024-02-21T02:24:34;20.15;;;11.45;;
13457;SDS011;6801;53.018;11.560;2024-02-21T02:27:01;27.35;;;12.32;;
13457;SDS011;6801;53.018;11.560;2024-02-21T02:29:28;25.25;;;10.68;;
13457;SDS011;6801;53.018;11.560;2024-02-21T02:31:58;24.10;;;11.32;;
13457;SDS011;6801;53.018;11.560;2024-02-21T02:34:25;27.73;;;11.73;;
13457;SDS011;6801;53.018;11.560;2024-02-21T02:36:51;25.58;;;11.85;;
13457;SDS011;6801;53.018;11.560;2024-02-21T02:39:19;22.63;;;9.50;;
13457;SDS011;6801;53.018;11.560;2024-02-21T02:41:48;29.95;;;12.70;;
13457;SDS011;6801;53.018;11.560;2024-02-21T02:44:15;22.00;;;11.48;;
13457;SDS011;6801;53.018;11.560;2024-02-21T02:46:42;23.17;;;11.52;;
13457;SDS011;6801;53.018;11.560;2024-02-21T02:49:09;26.65;;;11.40;;
13457;SDS011;6801;53.018;11.560;2024-02-21T02:51:36;19.92;;;9.95;;
13457;SDS011;6801;53.018;11.560;2024-02-21T02:54:03;31.40;;;12.77;;
13457;SDS011;6801;53.018;11.560;2024-02-21T02:56:30;27.42;;;12.48;;
13457;SDS011;6801;53.018;11.560;2024-02-21T02:58:58;22.83;;;10.85;;
13457;SDS011;6801;53.018;11.560;2024-02-21T03:01:25;23.35;;;11.02;;
13457;SDS011;6801;53.018;11.560;2024-02-21T03:03:52;25.30;;;11.48;;
13457;SDS011;6801;53.018;11.560;2024-02-21T03:06:20;32.85;;;12.68;;
13457;SDS011;6801;53.018;11.560;2024-02-21T03:08:47;16.60;;;9.35;;
13457;SDS011;6801;53.018;11.560;2024-02-21T03:11:14;25.02;;;11.73;;
13457;SDS011;6801;53.018;11.560;2024-02-21T03:13:40;26.85;;;13.35;;
13457;SDS011;6801;53.018;11.560;2024-02-21T03:16:09;25.35;;;11.48;;
13457;SDS011;6801;53.018;11.560;2024-02-21T03:18:36;24.52;;;10.23;;
13457;SDS011;6801;53.018;11.560;2024-02-21T03:21:03;31.75;;;11.93;;
13457;SDS011;6801;53.018;11.560;2024-02-21T03:23:30;26.52;;;11.60;;
13457;SDS011;6801;53.018;11.560;2024-02-21T03:25:57;23.55;;;10.25;;
13457;SDS011;6801;53.018;11.560;2024-02-21T03:28:24;22.58;;;11.73;;
13457;SDS011;6801;53.018;11.560;2024-02-21T03:30:51;28.77;;;14.32;;
13457;SDS011;6801;53.018;11.560;2024-02-21T03:33:19;24.42;;;12.25;;
13457;SDS011;6801;53.018;11.560;2024-02-21T03:35:48;27.27;;;12.65;;
13457;SDS011;6801;53.018;11.560;2024-02-21T03:38:15;26.08;;;13.43;;
13457;SDS011;6801;53.018;11.560;2024-02-21T03:40:42;31.02;;;14.15;;
13457;SDS011;6801;53.018;11.560;2024-02-21T03:43:09;32.80;;;14.95;;
13457;SDS011;6801;53.018;11.560;2024-02-21T03:45:36;32.13;;;13.05;;
13457;SDS011;6801;53.018;11.560;2024-02-21T03:48:03;29.70;;;14.13;;
13457;SDS011;6801;53.018;11.560;2024-02-21T03:50:32;26.55;;;13.10;;
13457;SDS011;6801;53.018;11.560;2024-02-21T03:52:59;31.05;;;14.45;;
13457;SDS011;6801;53.018;11.560;2024-02-21T03:55:26;27.75;;;12.63;;
13457;SDS011;6801;53.018;11.560;2024-02-21T03:57:53;15.35;;;8.07;;
13457;SDS011;6801;53.018;11.560;2024-02-21T04:00:20;29.48;;;14.50;;
13457;SDS011;6801;53.018;11.560;2024-02-21T04:02:48;29.75;;;13.65;;
13457;SDS011;6801;53.018;11.560;2024-02-21T04:05:15;28.33;;;14.40;;
13457;SDS011;6801;53.018;11.560;2024-02-21T04:07:44;26.65;;;13.88;;
13457;SDS011;6801;53.018;11.560;2024-02-21T04:10:11;33.15;;;14.98;;
13457;SDS011;6801;53.018;11.560;2024-02-21T04:12:38;32.25;;;14.15;;
13457;SDS011;6801;53.018;11.560;2024-02-21T04:15:05;29.33;;;14.30;;
13457;SDS011;6801;53.018;11.560;2024-02-21T04:17:32;34.25;;;13.27;;
13457;SDS011;6801;53.018;11.560;2024-02-21T04:20:01;30.70;;;15.75;;
13457;SDS011;6801;53.018;11.560;2024-02-21T04:24:59;26.27;;;15.48;;
13457;SDS011;6801;53.018;11.560;2024-02-21T04:27:26;34.45;;;15.82;;
13457;SDS011;6801;53.018;11.560;2024-02-21T04:29:53;37.80;;;15.05;;
13457;SDS011;6801;53.018;11.560;2024-02-21T04:32:21;29.42;;;14.93;;
13457;SDS011;6801;53.018;11.560;2024-02-21T04:34:48;36.30;;;16.10;;
13457;SDS011;6801;53.018;11.560;2024-02-21T04:37:15;28.75;;;15.55;;
13457;SDS011;6801;53.018;11.560;2024-02-21T04:39:42;30.55;;;15.05;;
13457;SDS011;6801;53.018;11.560;2024-02-21T04:42:10;32.05;;;15.38;;
13457;SDS011;6801;53.018;11.560;2024-02-21T04:44:37;31.38;;;14.93;;
13457;SDS011;6801;53.018;11.560;2024-02-21T04:47:04;28.67;;;14.63;;
13457;SDS011;6801;53.018;11.560;2024-02-21T04:49:32;31.65;;;15.88;;
13457;SDS011;6801;53.018;11.560;2024-02-21T04:51:59;35.45;;;14.68;;
13457;SDS011;6801;53.018;11.560;2024-02-21T04:54:26;31.38;;;13.07;;
13457;SDS011;6801;53.018;11.560;2024-02-21T04:56:53;30.83;;;14.43;;
13457;SDS011;6801;53.018;11.560;2024-02-21T04:59:21;30.73;;;14.70;;
13457;SDS011;6801;53.018;11.560;2024-02-21T05:01:48;29.02;;;13.00;;
13457;SDS011;6801;53.018;11.560;2024-02-21T05:04:15;30.83;;;14.80;;
13457;SDS011;6801;53.018;11.560;2024-02-21T05:06:42;25.77;;;14.20;;
13457;SDS011;6801;53.018;11.560;2024-02-21T05:09:09;27.70;;;14.68;;
13457;SDS011;6801;53.018;11.560;2024-02-21T05:11:36;26.98;;;13.85;;
13457;SDS011;6801;53.018;11.560;2024-02-21T05:14:04;34.92;;;14.13;;
13457;SDS011;6801;53.018;11.560;2024-02-21T05:16:32;27.02;;;14.30;;
13457;SDS011;6801;53.018;11.560;2024-02-21T05:18:59;24.15;;;12.63;;
13457;SDS011;6801;53.018;11.560;2024-02-21T05:21:26;24.00;;;11.27;;
13457;SDS011;6801;53.018;11.560;2024-02-21T05:23:53;26.13;;;13.35;;
13457;SDS011;6801;53.018;11.560;2024-02-21T05:26:20;31.13;;;13.93;;
13457;SDS011;6801;53.018;11.560;2024-02-21T05:28:48;25.88;;;13.60;;
13457;SDS011;6801;53.018;11.560;2024-02-21T05:31:15;27.05;;;14.27;;
13457;SDS011;6801;53.018;11.560;2024-02-21T05:33:43;25.05;;;13.98;;
13457;SDS011;6801;53.018;11.560;2024-02-21T05:36:11;29.25;;;13.40;;
13457;SDS011;6801;53.018;11.560;2024-02-21T05:38:38;22.02;;;12.02;;
13457;SDS011;6801;53.018;11.560;2024-02-21T05:41:05;25.92;;;13.63;;
13457;SDS011;6801;53.018;11.560;2024-02-21T05:43:32;26.17;;;13.45;;
13457;SDS011;6801;53.018;11.560;2024-02-21T05:45:59;24.83;;;13.05;;
13457;SDS011;6801;53.018;11.560;2024-02-21T05:48:26;25.58;;;13.85;;
13457;SDS011;6801;53.018;11.560;2024-02-21T05:50:54;22.75;;;13.25;;
13457;SDS011;6801;53.018;11.560;2024-02-21T05:53:21;23.40;;;12.85;;
13457;SDS011;6801;53.018;11.560;2024-02-21T05:55:48;25.42;;;12.40;;
13457;SDS011;6801;53.018;11.560;2024-02-21T05:58:15;18.98;;;11.77;;
13457;SDS011;6801;53.018;11.560;2024-02-21T06:00:42;31.30;;;13.35;;
13457;SDS011;6801;53.018;11.560;2024-02-21T06:03:09;28.13;;;13.20;;
13457;SDS011;6801;53.018;11.560;2024-02-21T06:05:36;25.60;;;13.20;;
13457;SDS011;6801;53.018;11.560;2024-02-21T06:08:14;21.30;;;10.68;;
13457;SDS011;6801;53.018;11.560;2024-02-21T06:10:41;27.45;;;14.10;;
13457;SDS011;6801;53.018;11.560;2024-02-21T06:13:08;22.90;;;12.85;;
13457;SDS011;6801;53.018;11.560;2024-02-21T06:15:35;28.40;;;14.23;;
13457;SDS011;6801;53.018;11.560;2024-02-21T06:18:03;25.50;;;12.90;;
13457;SDS011;6801;53.018;11.560;2024-02-21T06:20:30;25.30;;;11.35;;
13457;SDS011;6801;53.018;11.560;2024-02-21T06:22:57;22.05;;;11.52;;
13457;SDS011;6801;53.018;11.560;2024-02-21T06:45:11;23.52;;;11.40;;
13457;SDS011;6801;53.018;11.560;2024-02-21T06:47:39;23.30;;;11.93;;
13457;SDS011;6801;53.018;11.560;2024-02-21T06:50:06;21.20;;;11.77;;
13457;SDS011;6801;53.018;11.560;2024-02-21T06:52:35;21.70;;;11.38;;
13457;SDS011;6801;53.018;11.560;2024-02-21T07:00:51;23.85;;;11.85;;
13457;SDS011;6801;53.018;11.560;2024-02-21T07:03:18;22.25;;;11.60;;
13457;SDS011;6801;53.018;11.560;2024-02-21T07:05:45;22.15;;;11.63;;
13457;SDS011;6801;53.018;11.560;2024-02-21T07:08:12;23.63;;;12.23;;
13457;SDS011;6801;53.018;11.560;2024-02-21T07:10:39;22.52;;;12.07;;
13457;SDS011;6801;53.018;11.560;2024-02-21T07:13:06;16.58;;;11.00;;
13457;SDS011;6801;53.018;11.560;2024-02-21T07:15:33;25.85;;;12.50;;
13457;SDS011;6801;53.018;11.560;2024-02-21T07:18:03;22.85;;;12.18;;
13457;SDS011;6801;53.018;11.560;2024-02-21T07:20:30;19.20;;;12.10;;
13457;SDS011;6801;53.018;11.560;2024-02-21T07:22:58;21.95;;;13.43;;
13457;SDS011;6801;53.018;11.560;2024-02-21T07:25:25;22.00;;;12.00;;
13457;SDS011;6801;53.018;11.560;2024-02-21T07:27:52;20.52;;;12.52;;
13457;SDS011;6801;53.018;11.560;2024-02-21T07:30:19;23.02;;;12.65;;
13457;SDS011;6801;53.018;11.560;2024-02-21T07:32:48;20.80;;;11.75;;
13457;SDS011;6801;53.018;11.560;2024-02-21T07:35:17;25.00;;;12.32;;
13457;SDS011;6801;53.018;11.560;2024-02-21T07:37:44;21.30;;;11.43;;
13457;SDS011;6801;53.018;11.560;2024-02-21T07:40:12;22.83;;;12.18;;
13457;SDS011;6801;53.018;11.560;2024-02-21T07:42:39;18.00;;;10.63;;
13457;SDS011;6801;53.018;11.560;2024-02-21T07:45:06;21.55;;;12.60;;
13457;SDS011;6801;53.018;11.560;2024-02-21T07:47:34;19.63;;;12.30;;
13457;SDS011;6801;53.018;11.560;2024-02-21T07:50:01;22.73;;;12.05;;
13457;SDS011;6801;53.018;11.560;2024-02-21T07:52:30;24.17;;;12.88;;
13457;SDS011;6801;53.018;11.560;2024-02-21T07:54:57;23.27;;;13.27;;
13457;SDS011;6801;53.018;11.560;2024-02-21T07:57:24;22.55;;;12.63;;
13457;SDS011;6801;53.018;11.560;2024-02-21T07:59:51;21.17;;;12.57;;
13457;SDS011;6801;53.018;11.560;2024-02-21T08:02:18;23.13;;;12.10;;
13457;SDS011;6801;53.018;11.560;2024-02-21T08:04:45;19.35;;;11.65;;
13457;SDS011;6801;53.018;11.560;2024-02-21T08:07:12;21.83;;;10.95;;
13457;SDS011;6801;53.018;11.560;2024-02-21T08:09:40;22.90;;;13.20;;
13457;SDS011;6801;53.018;11.560;2024-02-21T08:12:08;22.27;;;13.82;;
13457;SDS011;6801;53.018;11.560;2024-02-21T08:14:37;22.38;;;13.27;;
13457;SDS011;6801;53.018;11.560;2024-02-21T08:17:04;24.90;;;13.25;;
13457;SDS011;6801;53.018;11.560;2024-02-21T08:19:31;23.05;;;13.45;;
13457;SDS011;6801;53.018;11.560;2024-02-21T08:21:58;22.33;;;13.27;;
13457;SDS011;6801;53.018;11.560;2024-02-21T08:24:25;21.90;;;10.73;;
13457;SDS011;6801;53.018;11.560;2024-02-21T08:26:53;23.58;;;13.52;;
13457;SDS011;6801;53.018;11.560;2024-02-21T08:29:21;22.05;;;14.18;;
13457;SDS011;6801;53.018;11.560;2024-02-21T08:31:49;22.88;;;12.43;;
13457;SDS011;6801;53.018;11.560;2024-02-21T08:34:16;23.13;;;13.45;;
13457;SDS011;6801;53.018;11.560;2024-02-21T08:36:43;19.65;;;13.32;;
13457;SDS011;6801;53.018;11.560;2024-02-21T08:39:10;20.30;;;12.63;;
13457;SDS011;6801;53.018;11.560;2024-02-21T08:41:41;18.52;;;12.35;;
13457;SDS011;6801;53.018;11.560;2024-02-21T08:44:10;22.88;;;13.30;;
13457;SDS011;6801;53.018;11.560;2024-02-21T08:46:37;21.08;;;11.13;;
13457;SDS011;6801;53.018;11.560;2024-02-21T08:49:05;20.17;;;11.02;;
13457;SDS011;6801;53.018;11.560;2024-02-21T08:51:32;22.23;;;12.30;;
13457;SDS011;6801;53.018;11.560;2024-02-21T08:54:00;21.58;;;10.35;;
13457;SDS011;6801;53.018;11.560;2024-02-21T08:56:27;22.63;;;13.50;;
13457;SDS011;6801;53.018;11.560;2024-02-21T08:58:56;20.50;;;13.60;;
13457;SDS011;6801;53.018;11.560;2024-02-21T09:01:25;21.85;;;12.82;;
13457;SDS011;6801;53.018;11.560;2024-02-21T09:03:52;20.55;;;12.48;;
13457;SDS011;6801;53.018;11.560;2024-02-21T09:06:21;21.98;;;13.07;;
13457;SDS011;6801;53.018;11.560;2024-02-21T09:08:48;19.70;;;13.02;;
13457;SDS011;6801;53.018;11.560;2024-02-21T09:11:15;23.38;;;12.40;;
13457;SDS011;6801;53.018;11.560;2024-02-21T09:13:42;22.23;;;12.88;;
13457;SDS011;6801;53.018;11.560;2024-02-21T09:16:09;23.17;;;13.30;;
13457;SDS011;6801;53.018;11.560;2024-02-21T09:18:38;18.45;;;12.48;;
13457;SDS011;6801;53.018;11.560;2024-02-21T09:21:05;20.02;;;11.98;;
13457;SDS011;6801;53.018;11.560;2024-02-21T09:23:32;21.77;;;13.98;;
13457;SDS011;6801;53.018;11.560;2024-02-21T09:25:59;22.38;;;12.98;;
13457;SDS011;6801;53.018;11.560;2024-02-21T09:28:28;18.92;;;10.77;;
13457;SDS011;6801;53.018;11.560;2024-02-21T09:30:55;19.92;;;11.57;;
13457;SDS011;6801;53.018;11.560;2024-02-21T09:33:22;19.38;;;11.05;;
13457;SDS011;6801;53.018;11.560;2024-02-21T09:35:51;21.42;;;10.82;;
13457;SDS011;6801;53.018;11.560;2024-02-21T09:38:18;17.45;;;9.55;;
13457;SDS011;6801;53.018;11.560;2024-02-21T09:40:45;21.00;;;11.82;;
13457;SDS011;6801;53.018;11.560;2024-02-21T09:43:12;20.85;;;11.50;;
13457;SDS011;6801;53.018;11.560;2024-02-21T09:45:46;19.42;;;10.98;;
13457;SDS011;6801;53.018;11.560;2024-02-21T09:48:19;18.25;;;10.00;;
13457;SDS011;6801;53.018;11.560;2024-02-21T09:50:57;19.10;;;11.60;;
13457;SDS011;6801;53.018;11.560;2024-02-21T09:55:54;19.58;;;12.32;;
13457;SDS011;6801;53.018;11.560;2024-02-21T09:58:22;18.77;;;11.00;;
13457;SDS011;6801;53.018;11.560;2024-02-21T10:00:52;16.48;;;11.07;;
13457;SDS011;6801;53.018;11.560;2024-02-21T10:03:19;16.92;;;10.55;;
13457;SDS011;6801;53.018;11.560;2024-02-21T10:05:47;17.45;;;10.88;;
13457;SDS011;6801;53.018;11.560;2024-02-21T10:08:17;18.00;;;11.38;;
13457;SDS011;6801;53.018;11.560;2024-02-21T10:10:45;19.42;;;11.32;;
13457;SDS011;6801;53.018;11.560;2024-02-21T10:13:23;19.08;;;11.82;;
13457;SDS011;6801;53.018;11.560;2024-02-21T10:16:00;15.95;;;9.73;;
13457;SDS011;6801;53.018;11.560;2024-02-21T10:18:31;18.08;;;11.05;;
13457;SDS011;6801;53.018;11.560;2024-02-21T10:21:02;16.67;;;10.40;;
13457;SDS011;6801;53.018;11.560;2024-02-21T10:23:41;23.02;;;14.32;;
13457;SDS011;6801;53.018;11.560;2024-02-21T10:26:09;20.25;;;12.18;;
13457;SDS011;6801;53.018;11.560;2024-02-21T10:28:36;17.02;;;10.45;;
13457;SDS011;6801;53.018;11.560;2024-02-21T10:31:07;23.30;;;13.15;;
13457;SDS011;6801;53.018;11.560;2024-02-21T10:33:35;19.45;;;10.98;;
13457;SDS011;6801;53.018;11.560;2024-02-21T10:36:06;18.10;;;12.02;;
13457;SDS011;6801;53.018;11.560;2024-02-21T10:38:34;20.10;;;11.88;;
13457;SDS011;6801;53.018;11.560;2024-02-21T10:41:04;17.65;;;11.18;;
13457;SDS011;6801;53.018;11.560;2024-02-21T10:43:33;18.90;;;11.13;;
13457;SDS011;6801;53.018;11.560;2024-02-21T10:46:06;23.40;;;11.63;;
13457;SDS011;6801;53.018;11.560;2024-02-21T10:48:37;20.83;;;10.43;;
13457;SDS011;6801;53.018;11.560;2024-02-21T10:51:12;19.40;;;12.02;;
13457;SDS011;6801;53.018;11.560;2024-02-21T10:53:44;21.70;;;11.85;;
13457;SDS011;6801;53.018;11.560;2024-02-21T10:56:21;19.27;;;11.90;;
13457;SDS011;6801;53.018;11.560;2024-02-21T10:58:52;19.60;;;12.55;;
13457;SDS011;6801;53.018;11.560;2024-02-21T11:01:21;17.83;;;11.40;;
13457;SDS011;6801;53.018;11.560;2024-02-21T11:03:52;17.55;;;11.38;;
13457;SDS011;6801;53.018;11.560;2024-02-21T11:06:21;18.67;;;12.40;;
13457;SDS011;6801;53.018;11.560;2024-02-21T11:08:59;20.50;;;11.90;;
13457;SDS011;6801;53.018;11.560;2024-02-21T11:11:29;18.17;;;12.18;;
13457;SDS011;6801;53.018;11.560;2024-02-21T11:14:05;18.35;;;12.30;;
13457;SDS011;6801;53.018;11.560;2024-02-21T11:16:37;22.40;;;12.63;;
13457;SDS011;6801;53.018;11.560;2024-02-21T11:19:07;20.15;;;11.60;;
13457;SDS011;6801;53.018;11.560;2024-02-21T11:21:36;25.05;;;12.82;;
13457;SDS011;6801;53.018;11.560;2024-02-21T11:24:04;18.02;;;10.77;;
13457;SDS011;6801;53.018;11.560;2024-02-21T11:26:33;17.33;;;12.50;;
13457;SDS011;6801;53.018;11.560;2024-02-21T11:29:00;26.85;;;15.50;;
13457;SDS011;6801;53.018;11.560;2024-02-21T11:31:38;23.25;;;12.15;;
13457;SDS011;6801;53.018;11.560;2024-02-21T11:34:08;22.38;;;13.75;;
13457;SDS011;6801;53.018;11.560;2024-02-21T11:36:36;23.88;;;11.40;;
13457;SDS011;6801;53.018;11.560;2024-02-21T11:39:13;22.17;;;12.57;;
13457;SDS011;6801;53.018;11.560;2024-02-21T11:41:46;21.25;;;12.95;;
13457;SDS011;6801;53.018;11.560;2024-02-21T11:44:13;23.08;;;13.95;;
13457;SDS011;6801;53.018;11.560;2024-02-21T11:46:40;21.55;;;12.98;;
13457;SDS011;6801;53.018;11.560;2024-02-21T11:49:07;24.98;;;13.70;;
13457;SDS011;6801;53.018;11.560;2024-02-21T11:51:34;27.30;;;13.25;;
13457;SDS011;6801;53.018;11.560;2024-02-21T11:54:01;24.92;;;14.23;;
13457;SDS011;6801;53.018;11.560;2024-02-21T11:56:30;23.63;;;13.50;;
13457;SDS011;6801;53.018;11.560;2024-02-21T11:58:59;21.23;;;12.60;;
13457;SDS011;6801;53.018;11.560;2024-02-21T12:03:54;20.00;;;11.98;;
13457;SDS011;6801;53.018;11.560;2024-02-21T12:06:21;17.48;;;11.80;;
13457;SDS011;6801;53.018;11.560;2024-02-21T12:08:48;21.70;;;12.63;;
13457;SDS011;6801;53.018;11.560;2024-02-21T12:11:16;21.33;;;11.20;;
13457;SDS011;6801;53.018;11.560;2024-02-21T12:13:47;21.98;;;12.63;;
13457;SDS011;6801;53.018;11.560;2024-02-21T12:16:26;22.63;;;11.55;;
13457;SDS011;6801;53.018;11.560;2024-02-21T12:18:54;20.95;;;12.30;;
13457;SDS011;6801;53.018;11.560;2024-02-21T12:21:23;23.10;;;10.85;;
13457;SDS011;6801;53.018;11.560;2024-02-21T12:23:53;24.80;;;11.00;;
13457;SDS011;6801;53.018;11.560;2024-02-21T12:26:20;24.25;;;13.05;;
13457;SDS011;6801;53.018;11.560;2024-02-21T12:28:47;24.73;;;13.18;;
13457;SDS011;6801;53.018;11.560;2024-02-21T12:31:14;21.63;;;11.10;;
13457;SDS011;6801;53.018;11.560;2024-02-21T12:33:43;19.92;;;11.13;;
13457;SDS011;6801;53.018;11.560;2024-02-21T12:36:10;20.55;;;11.13;;
13457;SDS011;6801;53.018;11.560;2024-02-21T12:38:37;19.60;;;11.35;;
13457;SDS011;6801;53.018;11.560;2024-02-21T12:41:04;16.70;;;9.32;;
13457;SDS011;6801;53.018;11.560;2024-02-21T12:43:32;18.38;;;10.02;;
13457;SDS011;6801;53.018;11.560;2024-02-21T12:46:00;18.27;;;10.85;;
13457;SDS011;6801;53.018;11.560;2024-02-21T12:48:27;18.17;;;10.45;;
13457;SDS011;6801;53.018;11.560;2024-02-21T12:50:56;15.00;;;9.73;;
13457;SDS011;6801;53.018;11.560;2024-02-21T12:53:23;18.65;;;9.90;;
13457;SDS011;6801;53.018;11.560;2024-02-21T12:55:50;15.68;;;9.90;;
13457;SDS011;6801;53.018;11.560;2024-02-21T12:58:18;15.95;;;9.45;;
13457;SDS011;6801;53.018;11.560;2024-02-21T13:00:46;17.00;;;8.52;;
13457;SDS011;6801;53.018;11.560;2024-02-21T13:03:13;14.18;;;8.82;;
13457;SDS011;6801;53.018;11.560;2024-02-21T13:05:40;21.10;;;10.10;;
13457;SDS011;6801;53.018;11.560;2024-02-21T13:08:09;18.73;;;10.00;;
13457;SDS011;6801;53.018;11.560;2024-02-21T13:10:37;17.05;;;9.55;;
13457;SDS011;6801;53.018;11.560;2024-02-21T13:13:04;14.52;;;8.15;;
13457;SDS011;6801;53.018;11.560;2024-02-21T13:15:31;15.18;;;9.45;;
13457;SDS011;6801;53.018;11.560;2024-02-21T13:17:58;17.70;;;8.52;;
13457;SDS011;6801;53.018;11.560;2024-02-21T13:20:25;19.95;;;8.93;;
13457;SDS011;6801;53.018;11.560;2024-02-21T13:22:53;16.17;;;8.10;;
13457;SDS011;6801;53.018;11.560;2024-02-21T13:25:21;17.95;;;9.07;;
13457;SDS011;6801;53.018;11.560;2024-02-21T13:27:49;18.10;;;8.20;;
13457;SDS011;6801;53.018;11.560;2024-02-21T13:30:16;13.20;;;7.57;;
13457;SDS011;6801;53.018;11.560;2024-02-21T13:32:43;14.77;;;7.28;;
13457;SDS011;6801;53.018;11.560;2024-02-21T13:35:12;14.88;;;6.75;;
13457;SDS011;6801;53.018;11.560;2024-02-21T13:37:40;18.95;;;7.38;;
13457;SDS011;6801;53.018;11.560;2024-02-21T13:40:08;13.65;;;6.07;;
13457;SDS011;6801;53.018;11.560;2024-02-21T13:42:36;15.27;;;6.47;;
13457;SDS011;6801;53.018;11.560;2024-02-21T13:45:05;12.95;;;6.07;;
13457;SDS011;6801;53.018;11.560;2024-02-21T13:47:33;11.35;;;5.30;;
13457;SDS011;6801;53.018;11.560;2024-02-21T13:50:01;11.35;;;5.57;;
13457;SDS011;6801;53.018;11.560;2024-02-21T13:52:30;34.55;;;16.90;;
13457;SDS011;6801;53.018;11.560;2024-02-21T13:54:58;18.35;;;10.00;;
13457;SDS011;6801;53.018;11.560;2024-02-21T13:57:25;13.07;;;4.63;;
13457;SDS011;6801;53.018;11.560;2024-02-21T13:59:53;10.52;;;4.60;;
13457;SDS011;6801;53.018;11.560;2024-02-21T14:02:21;12.48;;;4.35;;
13457;SDS011;6801;53.018;11.560;2024-02-21T14:04:48;11.82;;;5.18;;
13457;SDS011;6801;53.018;11.560;2024-02-21T14:07:15;7.72;;;4.65;;
13457;SDS011;6801;53.018;11.560;2024-02-21T14:09:42;11.88;;;4.40;;
13457;SDS011;6801;53.018;11.560;2024-02-21T14:12:09;9.75;;;3.90;;
13457;SDS011;6801;53.018;11.560;2024-02-21T14:14:36;8.98;;;4.50;;
13457;SDS011;6801;53.018;11.560;2024-02-21T14:17:04;10.23;;;4.10;;
13457;SDS011;6801;53.018;11.560;2024-02-21T14:19:31;7.20;;;4.43;;
13457;SDS011;6801;53.018;11.560;2024-02-21T14:21:58;7.75;;;3.60;;
13457;SDS011;6801;53.018;11.560;2024-02-21T14:24:25;8.40;;;4.10;;
13457;SDS011;6801;53.018;11.560;2024-02-21T14:26:53;8.82;;;3.40;;
13457;SDS011;6801;53.018;11.560;2024-02-21T14:29:20;6.95;;;3.28;;
13457;SDS011;6801;53.018;11.560;2024-02-21T14:31:47;11.52;;;3.38;;
13457;SDS011;6801;53.018;11.560;2024-02-21T14:34:15;9.20;;;2.85;;
13457;SDS011;6801;53.018;11.560;2024-02-21T14:36:42;8.20;;;3.00;;
13457;SDS011;6801;53.018;11.560;2024-02-21T14:39:09;5.97;;;2.72;;
13457;SDS011;6801;53.018;11.560;2024-02-21T14:41:36;5.78;;;2.72;;
13457;SDS011;6801;53.018;11.560;2024-02-21T14:44:04;7.78;;;3.00;;
13457;SDS011;6801;53.018;11.560;2024-02-21T14:46:34;7.65;;;2.60;;
13457;SDS011;6801;53.018;11.560;2024-02-21T14:49:03;5.32;;;2.63;;
13457;SDS011;6801;53.018;11.560;2024-02-21T14:51:31;5.88;;;2.50;;
13457;SDS011;6801;53.018;11.560;2024-02-21T14:53:59;6.63;;;2.47;;
13457;SDS011;6801;53.018;11.560;2024-02-21T14:56:26;8.98;;;2.78;;
13457;SDS011;6801;53.018;11.560;2024-02-21T14:58:53;9.18;;;3.50;;
13457;SDS011;6801;53.018;11.560;2024-02-21T15:01:20;9.88;;;2.95;;
13457;SDS011;6801;53.018;11.560;2024-02-21T15:03:47;8.48;;;3.20;;